Time;durP1;ratioP1;P1;durP2;ratioP2;P2;SDS_P1;SDS_P2;PMS_P1;PMS_P2;Temp;Humidity;BMP_temperature;BMP_pressure;BME280_temperature;BME280_humidity;BME280_pressure;Samples;Min_cycle;Max_cycle;Signal;HPM_P1;HPM_P2
2022/05/25 00:02:01;;;;;;;10.77;2.97;;;;;;;13.76;33.00;99067.59;4957000;28;20046;-73
2022/05/25 00:04:27;;;;;;;5.18;3.05;;;;;;;13.67;32.83;99071.41;5005398;28;20089;-73
2022/05/25 00:06:54;;;;;;;8.25;4.30;;;;;;;13.72;32.94;99058.28;4989540;28;20073;-73
2022/05/25 00:09:20;;;;;;;9.18;3.80;;;;;;;13.76;33.21;99057.72;4989133;28;20042;-75
2022/05/25 00:11:46;;;;;;;8.15;3.38;;;;;;;13.78;33.05;99068.25;4989342;28;20038;-74
2022/05/25 00:14:12;;;;;;;7.63;2.90;;;;;;;13.85;32.95;99064.59;4973024;28;20141;-72
2022/05/25 00:16:38;;;;;;;4.05;2.20;;;;;;;13.73;32.83;99073.31;4988968;28;20042;-73
2022/05/25 00:21:48;;;;;;;2.70;2.00;;;;;;;13.85;32.69;99074.44;4986689;28;20204;-75
2022/05/25 00:24:14;;;;;;;9.52;2.67;;;;;;;13.73;32.82;99073.31;4972728;28;20137;-73
2022/05/25 00:26:40;;;;;;;6.32;2.30;;;;;;;13.84;32.79;99080.81;4972765;28;20524;-72
2022/05/25 00:29:06;;;;;;;4.55;2.22;;;;;;;13.87;32.70;99075.09;4956381;28;20046;-72
2022/05/25 00:31:32;;;;;;;4.95;2.40;;;;;;;13.86;32.49;99058.22;4990405;28;20526;-73
2022/05/25 00:34:00;;;;;;;2.83;2.10;;;;;;;13.93;32.38;99087.66;4989074;28;20047;-72
2022/05/25 00:36:26;;;;;;;3.42;2.28;;;;;;;13.95;32.59;99075.75;4972417;28;20499;-70
2022/05/25 00:38:54;;;;;;;3.13;2.08;;;;;;;13.92;32.58;99083.31;5004795;28;20073;-70
2022/05/25 00:41:28;;;;;;;7.13;2.13;;;;;;;14.21;32.50;99089.31;4972775;28;20073;-71
2022/05/25 00:43:55;;;;;;;3.45;2.15;;;;;;;14.00;32.75;99093.88;4973225;28;20065;-71
2022/05/25 00:46:21;;;;;;;3.60;2.20;;;;;;;14.00;32.58;99083.19;4994044;28;20044;-73
2022/05/25 00:48:53;;;;;;;5.65;2.10;;;;;;;14.15;32.40;99090.09;5008955;28;20048;-70
2022/05/25 00:51:26;;;;;;;3.80;2.17;;;;;;;14.11;32.60;99098.69;5009075;28;20067;-69
2022/05/25 00:53:56;;;;;;;5.70;2.40;;;;;;;14.03;32.95;99096.16;4960057;28;20050;-72
2022/05/25 00:56:23;;;;;;;4.72;1.83;;;;;;;13.94;33.03;99100.81;4976108;28;20529;-72
2022/05/25 00:58:53;;;;;;;3.17;2.47;;;;;;;14.14;32.64;99099.13;4992667;28;20046;-71
2022/05/25 01:01:19;;;;;;;4.35;2.15;;;;;;;13.94;33.05;99105.31;5007637;28;20049;-71
2022/05/25 01:03:45;;;;;;;4.60;2.10;;;;;;;13.82;33.19;99106.84;5010208;28;20466;-70
2022/05/25 01:06:41;;;;;;;8.65;2.63;;;;;;;14.17;32.68;99106.75;5011538;28;20059;-71
2022/05/25 01:09:19;;;;;;;6.68;2.33;;;;;;;14.13;32.79;99112.69;4995163;28;20539;-71
2022/05/25 01:11:55;;;;;;;16.50;3.63;;;;;;;13.89;33.26;99073.03;5012740;28;20045;-71
2022/05/25 01:14:39;;;;;;;8.95;2.50;;;;;;;14.19;32.91;99107.38;5012182;28;20038;-71
2022/05/25 01:17:05;;;;;;;3.92;2.28;;;;;;;13.85;33.11;99117.16;5012630;28;20136;-71
2022/05/25 01:19:43;;;;;;;3.28;2.30;;;;;;;13.88;32.82;99114.94;5010009;28;20220;-71
2022/05/25 01:22:30;;;;;;;5.65;2.30;;;;;;;14.19;32.72;99114.56;5011211;28;20088;-71
2022/05/25 01:25:33;;;;;;;7.90;2.33;;;;;;;14.24;32.56;99112.16;5011049;28;20045;-71
2022/05/25 01:28:09;;;;;;;6.60;2.30;;;;;;;14.10;32.95;99097.84;4993350;28;20050;-71
2022/05/25 01:30:39;;;;;;;8.05;2.40;;;;;;;14.25;32.82;99125.34;4979191;28;20042;-70
2022/05/25 01:33:37;;;;;;;3.78;2.60;;;;;;;14.39;32.52;99123.59;4995706;28;20038;-70
2022/05/25 01:36:10;;;;;;;2.92;2.05;;;;;;;14.40;32.74;99127.91;4995770;28;20071;-71
2022/05/25 01:39:05;;;;;;;5.18;2.40;;;;;;;14.44;32.43;99130.00;4996425;28;20065;-71
2022/05/25 01:41:54;;;;;;;3.90;2.85;;;;;;;14.28;33.05;99129.47;5012637;28;20065;-72
2022/05/25 01:44:24;;;;;;;3.58;2.33;;;;;;;14.15;32.85;99129.31;4995438;28;20041;-71
2022/05/25 01:47:04;;;;;;;4.00;2.35;;;;;;;13.98;32.93;99103.91;5013126;28;20042;-71
2022/05/25 01:49:54;;;;;;;6.50;2.50;;;;;;;14.04;33.04;99130.66;4980521;28;20460;-71
2022/05/25 01:52:28;;;;;;;6.00;2.60;;;;;;;14.02;33.14;99142.56;5011748;28;20045;-71
2022/05/25 01:54:57;;;;;;;4.35;2.40;;;;;;;13.85;33.48;99139.34;5012472;28;20050;-70
2022/05/25 01:57:27;;;;;;;3.45;2.28;;;;;;;13.82;33.46;99142.41;4994570;28;20085;-69
2022/05/25 01:59:52;;;;;;;5.18;2.40;;;;;;;13.58;33.71;99148.06;5011842;28;20605;-70
2022/05/25 02:05:06;;;;;;;5.22;2.50;;;;;;;13.70;33.59;99145.75;5014084;28;20049;-72
2022/05/25 02:07:39;;;;;;;6.55;2.33;;;;;;;13.74;34.03;99150.53;5012050;28;20038;-72
2022/05/25 02:10:23;;;;;;;4.97;2.47;;;;;;;13.80;33.73;99159.59;5010536;28;20046;-71
2022/05/25 02:13:08;;;;;;;7.75;2.70;;;;;;;13.79;33.95;99155.28;5011208;28;20057;-71
2022/05/25 02:15:52;;;;;;;4.43;2.55;;;;;;;13.70;34.01;99154.56;5010519;28;20456;-74
2022/05/25 02:18:42;;;;;;;4.97;2.53;;;;;;;13.74;33.86;99155.84;5010140;28;20081;-74
2022/05/25 02:21:35;;;;;;;6.50;2.30;;;;;;;13.70;33.90;99157.22;5010543;28;20049;-73
2022/05/25 02:24:22;;;;;;;5.55;2.30;;;;;;;13.69;33.95;99171.59;5010222;28;20123;-72
2022/05/25 02:26:52;;;;;;;3.85;2.40;;;;;;;13.61;33.79;99161.03;5010346;28;20052;-72
2022/05/25 02:29:23;;;;;;;7.00;2.33;;;;;;;13.64;34.10;99168.66;5026494;28;20046;-73
2022/05/25 02:32:00;;;;;;;7.40;3.47;;;;;;;13.67;34.14;99156.81;5009977;28;20045;-71
2022/05/25 02:34:27;;;;;;;6.00;2.72;;;;;;;13.56;34.30;99158.13;4977570;28;20041;-70
2022/05/25 02:36:55;;;;;;;5.15;3.00;;;;;;;13.51;34.40;99155.19;4961762;28;20074;-71
2022/05/25 02:39:21;;;;;;;6.25;2.63;;;;;;;13.49;34.36;99157.22;4977392;28;20073;-70
2022/05/25 02:41:53;;;;;;;3.03;2.40;;;;;;;13.65;34.38;99159.66;4993403;28;20046;-72
2022/05/25 02:44:19;;;;;;;4.75;2.50;;;;;;;13.45;34.79;99148.75;4977475;28;20073;-71
2022/05/25 02:46:45;;;;;;;8.90;2.85;;;;;;;13.41;33.96;99144.81;5009778;28;20132;-72
2022/05/25 02:49:11;;;;;;;3.72;2.55;;;;;;;13.58;34.66;99151.56;5009611;28;20077;-72
2022/05/25 02:51:38;;;;;;;4.53;2.63;;;;;;;13.64;34.37;99159.84;4993109;28;20119;-72
2022/05/25 02:54:04;;;;;;;5.72;2.80;;;;;;;13.69;34.03;99152.91;4993276;28;20046;-71
2022/05/25 02:56:30;;;;;;;8.00;2.90;;;;;;;13.68;34.20;99163.78;4993162;28;20423;-72
2022/05/25 02:58:56;;;;;;;3.63;2.50;;;;;;;13.63;33.99;99161.69;4993689;28;20049;-71
2022/05/25 03:01:22;;;;;;;3.65;2.38;;;;;;;13.46;33.96;99134.41;5009506;28;20034;-71
2022/05/25 03:03:47;;;;;;;4.80;2.50;;;;;;;13.65;34.08;99164.16;4993295;28;20457;-70
2022/05/25 03:06:13;;;;;;;5.90;2.40;;;;;;;13.65;34.03;99158.81;5010985;28;20140;-70
2022/05/25 03:08:41;;;;;;;10.32;3.30;;;;;;;13.76;33.80;99166.34;5010906;28;20042;-70
2022/05/25 03:11:08;;;;;;;4.85;2.80;;;;;;;13.78;33.98;99157.13;5009807;28;20046;-71
2022/05/25 03:13:35;;;;;;;5.93;2.47;;;;;;;13.70;33.51;99157.22;5009539;28;20048;-69
2022/05/25 03:16:03;;;;;;;5.88;2.75;;;;;;;13.83;33.70;99152.03;5009591;28;20129;-69
2022/05/25 03:18:29;;;;;;;5.65;2.60;;;;;;;13.74;33.67;99169.19;5026061;28;20046;-69
2022/05/25 03:20:55;;;;;;;5.50;2.88;;;;;;;13.79;33.68;99176.63;4993801;28;20050;-71
2022/05/25 03:23:21;;;;;;;6.60;3.40;;;;;;;13.80;33.56;99170.28;4977181;28;20124;-71
2022/05/25 03:25:47;;;;;;;6.65;2.80;;;;;;;13.96;33.40;99164.69;4976602;28;20076;-71
2022/05/25 03:28:13;;;;;;;4.55;3.05;;;;;;;13.99;33.63;99177.66;5009276;28;20100;-71
2022/05/25 03:30:42;;;;;;;3.67;3.00;;;;;;;14.11;33.31;99165.44;4993108;28;20049;-72
2022/05/25 03:33:08;;;;;;;5.97;2.70;;;;;;;13.96;33.20;99168.16;5010536;28;20091;-71
2022/05/25 03:35:33;;;;;;;8.32;2.78;;;;;;;14.06;32.76;99178.53;4992774;28;20041;-71
2022/05/25 03:38:01;;;;;;;7.22;3.17;;;;;;;14.06;33.04;99173.19;5009282;28;20389;-71
2022/05/25 03:40:27;;;;;;;11.95;3.00;;;;;;;14.10;33.01;99180.63;5009256;28;20080;-72
2022/05/25 03:42:53;;;;;;;8.27;3.40;;;;;;;14.13;33.01;99177.59;5009084;28;20046;-73
2022/05/25 03:45:19;;;;;;;6.30;2.83;;;;;;;14.17;32.99;99170.84;5009026;28;20132;-71
2022/05/25 03:47:45;;;;;;;3.58;2.63;;;;;;;14.24;32.26;99171.75;4992714;28;20046;-71
2022/05/25 03:50:11;;;;;;;6.47;2.67;;;;;;;14.21;32.24;99179.28;5008826;28;20077;-71
2022/05/25 03:52:38;;;;;;;3.28;2.50;;;;;;;14.28;31.95;99180.22;4976263;28;20546;-71
2022/05/25 03:55:05;;;;;;;6.22;2.58;;;;;;;14.36;32.01;99167.53;5008655;28;20132;-71
2022/05/25 03:57:32;;;;;;;5.63;2.70;;;;;;;14.42;31.67;99184.66;5008537;28;20062;-72
2022/05/25 03:59:58;;;;;;;5.35;2.70;;;;;;;14.41;31.87;99172.31;4977065;28;20499;-72
2022/05/25 04:02:24;;;;;;;8.65;2.28;;;;;;;14.72;31.57;99180.75;5008756;28;20038;-72
2022/05/25 04:05:07;;;;;;;4.95;2.60;;;;;;;14.42;31.31;99155.28;5010033;28;20163;-72
2022/05/25 04:07:41;;;;;;;7.03;2.83;;;;;;;14.91;30.93;99174.72;4978308;28;20045;-74
2022/05/25 04:10:11;;;;;;;4.40;2.28;;;;;;;14.97;31.06;99190.00;5008495;28;20064;-73
2022/05/25 04:12:37;;;;;;;9.43;2.55;;;;;;;15.14;30.69;99185.97;5008421;28;20046;-73
2022/05/25 04:15:03;;;;;;;6.47;3.08;;;;;;;15.34;30.04;99181.53;5008793;28;20050;-74
2022/05/25 04:17:31;;;;;;;3.45;2.22;;;;;;;15.71;29.45;99190.97;5008717;28;20495;-71
2022/05/25 04:19:57;;;;;;;5.00;2.53;;;;;;;15.70;29.37;99200.84;5010508;28;20049;-72
2022/05/25 04:22:23;;;;;;;7.60;2.60;;;;;;;15.66;29.04;99164.81;4979753;28;20230;-71
2022/05/25 04:24:49;;;;;;;6.45;2.35;;;;;;;15.94;28.68;99192.28;5012528;28;20053;-72
2022/05/25 04:27:14;;;;;;;5.88;2.17;;;;;;;15.96;28.40;99200.09;5012075;28;20104;-72
2022/05/25 04:29:40;;;;;;;4.10;2.42;;;;;;;16.06;28.17;99193.31;5012502;28;20056;-72
2022/05/25 04:32:06;;;;;;;15.20;8.60;;;;;;;16.11;27.98;99182.84;5012205;28;20100;-75
2022/05/25 04:34:32;;;;;;;8.48;4.88;;;;;;;16.08;27.94;99193.94;5012853;28;20050;-71
2022/05/25 04:37:48;;;;;;;3.80;2.70;;;;;;;16.13;27.42;99193.34;5011923;28;20081;-70
2022/05/25 04:39:44;;;;;;;3.20;2.25;;;;;;;16.11;27.70;99201.59;4995380;28;20380;-70
2022/05/25 04:42:11;;;;;;;4.10;2.20;;;;;;;16.25;27.17;99197.06;5011964;28;20205;-70
2022/05/25 04:44:36;;;;;;;6.07;2.28;;;;;;;16.34;26.98;99195.84;5011736;28;20108;-70
2022/05/25 04:47:02;;;;;;;4.68;2.20;;;;;;;16.48;26.88;99201.00;4995556;28;20042;-71
2022/05/25 04:49:28;;;;;;;3.35;2.08;;;;;;;16.56;26.63;99206.16;4995202;28;20038;-73
2022/05/25 04:51:54;;;;;;;5.05;2.80;;;;;;;16.42;26.59;99172.31;4995583;28;20500;-73
2022/05/25 04:54:20;;;;;;;4.35;2.80;;;;;;;16.54;26.44;99194.81;4971021;28;20054;-71
2022/05/25 04:59:31;;;;;;;12.63;5.35;;;;;;;16.83;26.26;99207.81;4992033;28;20049;-72
2022/05/25 05:01:59;;;;;;;8.93;3.90;;;;;;;17.02;26.23;99205.31;4976732;28;20046;-71
2022/05/25 05:04:26;;;;;;;8.65;3.20;;;;;;;17.04;25.46;99187.13;4959075;28;20058;-73
2022/05/25 05:06:53;;;;;;;4.47;2.80;;;;;;;17.26;25.29;99218.03;4991015;28;20213;-74
2022/05/25 05:09:19;;;;;;;4.95;2.95;;;;;;;17.26;25.38;99207.31;4992421;28;20129;-73
2022/05/25 05:11:45;;;;;;;4.75;2.90;;;;;;;17.35;24.94;99197.97;4956576;28;20050;-72
2022/05/25 05:14:16;;;;;;;5.40;3.17;;;;;;;17.61;24.60;99206.78;4958078;28;20140;-73
2022/05/25 05:16:44;;;;;;;12.82;6.25;;;;;;;17.43;24.74;99195.91;4974216;28;20455;-73
2022/05/25 05:19:21;;;;;;;6.45;3.88;;;;;;;17.67;23.71;99202.41;4959119;28;20053;-72
2022/05/25 05:21:58;;;;;;;4.57;3.00;;;;;;;17.88;23.51;99210.19;4988946;28;20472;-73
2022/05/25 05:24:28;;;;;;;8.65;3.58;;;;;;;17.99;23.50;99198.75;4990160;28;20944;-74
2022/05/25 05:26:55;;;;;;;6.25;3.00;;;;;;;18.11;23.07;99207.78;4971115;28;20038;-73
2022/05/25 05:29:23;;;;;;;6.22;3.65;;;;;;;18.05;23.18;99189.84;5017567;28;20049;-73
2022/05/25 05:31:49;;;;;;;6.38;3.17;;;;;;;18.17;23.02;99209.59;4979440;28;20052;-74
2022/05/25 05:34:14;;;;;;;8.13;3.90;;;;;;;18.25;22.75;99193.22;5018257;28;20042;-74
2022/05/25 05:36:43;;;;;;;7.68;3.50;;;;;;;18.34;22.42;99189.22;4985481;28;20518;-73
2022/05/25 05:39:11;;;;;;;5.45;2.70;;;;;;;18.43;22.54;99191.41;5016214;28;20041;-73
2022/05/25 05:41:51;;;;;;;5.18;2.28;;;;;;;18.61;22.24;99205.97;4985881;28;20049;-73
2022/05/25 05:44:22;;;;;;;6.47;2.08;;;;;;;18.86;21.99;99201.41;5001273;28;20130;-73
2022/05/25 05:46:50;;;;;;;6.03;2.15;;;;;;;19.14;21.64;99194.53;5000110;28;20038;-73
2022/05/25 05:49:18;;;;;;;4.45;2.30;;;;;;;19.55;21.10;99185.78;5010668;28;20068;-75
2022/05/25 05:51:47;;;;;;;6.80;2.92;;;;;;;19.75;21.15;99164.78;4978964;28;20058;-75
2022/05/25 05:54:14;;;;;;;10.68;3.00;;;;;;;20.19;21.09;99193.22;4985763;28;20045;-75
2022/05/25 05:56:40;;;;;;;9.98;3.50;;;;;;;20.30;20.53;99205.91;4993609;28;20081;-74
2022/05/25 05:59:06;;;;;;;5.68;2.60;;;;;;;20.29;20.98;99198.88;4989021;28;20073;-75
2022/05/25 06:01:31;;;;;;;5.07;2.67;;;;;;;20.27;20.71;99195.56;4999491;28;20049;-75
2022/05/25 06:03:57;;;;;;;7.28;2.38;;;;;;;20.20;20.37;99203.78;4982911;28;20081;-73
2022/05/25 06:06:23;;;;;;;2.60;2.22;;;;;;;20.17;20.67;99190.75;5015127;28;20038;-73
2022/05/25 06:08:51;;;;;;;3.65;2.13;;;;;;;20.11;20.22;99197.84;5013468;28;20064;-74
2022/05/25 06:11:19;;;;;;;7.10;2.50;;;;;;;20.03;20.42;99190.06;5011413;28;20056;-74
2022/05/25 06:13:45;;;;;;;2.95;1.85;;;;;;;19.83;20.60;99194.13;4999453;28;20140;-74
2022/05/25 06:21:41;;;;;;;4.10;2.30;;;;;;;19.45;20.67;99172.81;5018415;28;20569;-73
2022/05/25 06:24:07;;;;;;;5.47;2.08;;;;;;;19.83;20.09;99197.59;4983927;28;20491;-74
2022/05/25 06:26:33;;;;;;;3.83;2.05;;;;;;;20.20;19.25;99198.38;5002100;28;20132;-75
2022/05/25 06:28:59;;;;;;;5.40;2.33;;;;;;;20.64;19.21;99194.34;4992529;28;20064;-75
2022/05/25 06:31:26;;;;;;;5.25;2.65;;;;;;;21.03;18.90;99208.03;5018996;28;20586;-74
2022/05/25 06:33:52;;;;;;;9.23;2.88;;;;;;;21.12;19.25;99189.59;5000928;28;20515;-74
2022/05/25 06:36:22;;;;;;;6.22;2.30;;;;;;;20.87;19.51;99207.88;4983689;28;20045;-74
2022/05/25 06:38:48;;;;;;;4.32;2.40;;;;;;;20.52;19.80;99198.91;5001893;28;20057;-74
2022/05/25 06:41:14;;;;;;;4.93;2.63;;;;;;;20.47;19.84;99206.88;4968864;28;20041;-74
2022/05/25 06:43:40;;;;;;;4.32;2.28;;;;;;;20.47;20.05;99209.56;4985733;28;20132;-73
2022/05/25 06:46:08;;;;;;;9.23;2.47;;;;;;;20.47;19.49;99215.81;4976267;28;20133;-75
2022/05/25 06:48:35;;;;;;;4.63;2.08;;;;;;;20.19;20.08;99210.22;4989482;28;20068;-75
2022/05/25 06:51:15;;;;;;;4.93;2.25;;;;;;;20.10;19.84;99163.03;4989901;28;20484;-75
2022/05/25 06:53:41;;;;;;;4.67;2.10;;;;;;;20.11;20.25;99205.94;4973717;28;20466;-74
2022/05/25 06:56:09;;;;;;;7.97;2.22;;;;;;;20.09;20.23;99207.22;4983542;28;20605;-74
2022/05/25 06:58:41;;;;;;;7.03;2.47;;;;;;;20.04;19.96;99201.69;4992036;28;20511;-73
2022/05/25 07:01:07;;;;;;;4.88;2.50;;;;;;;19.86;20.13;99196.34;4976333;28;20136;-74
2022/05/25 07:03:33;;;;;;;4.75;2.20;;;;;;;19.97;20.12;99198.28;5009227;28;20120;-74
2022/05/25 07:06:03;;;;;;;4.20;2.28;;;;;;;20.33;19.61;99203.56;5008338;28;20399;-72
2022/05/25 07:08:28;;;;;;;4.47;1.90;;;;;;;20.42;18.89;99204.06;4992252;28;20163;-73
2022/05/25 07:10:54;;;;;;;6.28;1.88;;;;;;;20.76;18.92;99201.41;4991163;28;20590;-73
2022/05/25 07:13:20;;;;;;;2.10;1.38;;;;;;;21.17;18.06;99201.31;4975524;28;20045;-74
2022/05/25 07:15:46;;;;;;;3.00;1.40;;;;;;;21.80;17.28;99204.03;4972826;28;20101;-74
2022/05/25 07:18:12;;;;;;;4.53;1.45;;;;;;;22.29;16.35;99197.09;4956488;28;20052;-74
2022/05/25 07:20:38;;;;;;;4.93;1.52;;;;;;;22.93;16.24;99181.16;4972730;28;20455;-74
2022/05/25 07:23:04;;;;;;;1.70;1.52;;;;;;;23.34;15.70;99195.31;4940606;28;20046;-74
2022/05/25 07:25:30;;;;;;;2.47;1.85;;;;;;;23.70;15.48;99183.81;4964011;28;20050;-74
2022/05/25 07:27:56;;;;;;;5.25;2.92;;;;;;;24.59;14.85;99183.97;4956040;28;20104;-77
2022/05/25 07:30:22;;;;;;;3.42;1.63;;;;;;;26.14;13.34;99194.91;4955460;28;20085;-76
2022/05/25 07:32:48;;;;;;;4.50;1.50;;;;;;;27.08;12.18;99195.22;4971616;28;20074;-74
2022/05/25 07:35:16;;;;;;;4.53;1.90;;;;;;;27.31;12.22;99180.19;4970135;28;20050;-73
2022/05/25 07:37:44;;;;;;;3.90;1.92;;;;;;;27.46;11.97;99188.34;4971773;28;20138;-73
2022/05/25 07:40:11;;;;;;;6.28;1.98;;;;;;;26.61;12.68;99191.97;4971961;28;20759;-72
2022/05/25 07:42:40;;;;;;;8.00;1.92;;;;;;;26.36;12.88;99184.59;4972621;28;20065;-71
2022/05/25 07:45:07;;;;;;;6.05;1.92;;;;;;;25.81;13.48;99197.22;4961351;28;20522;-75
2022/05/25 07:47:35;;;;;;;3.63;1.90;;;;;;;26.66;12.87;99183.84;4989164;28;20043;-74
2022/05/25 07:50:01;;;;;;;6.10;1.65;;;;;;;28.96;10.97;99192.06;4984606;28;20041;-72
2022/05/25 07:52:32;;;;;;;4.60;1.83;;;;;;;31.98;9.08;99195.44;5006862;28;20042;-71
2022/05/25 07:54:58;;;;;;;3.42;1.80;;;;;;;34.41;7.62;99192.28;5001279;28;20082;-73
2022/05/25 07:57:24;;;;;;;3.72;2.05;;;;;;;36.60;6.05;99189.25;4994638;28;20100;-72
2022/05/25 07:59:54;;;;;;;4.40;1.77;;;;;;;38.50;5.25;99202.06;4995516;28;20132;-72
2022/05/25 08:08:07;;;;;;;6.82;1.73;;;;;;;41.45;3.59;99193.28;4991445;28;20057;-73
2022/05/25 08:10:36;;;;;;;2.97;1.42;;;;;;;42.00;3.14;99186.22;4975968;28;20046;-73
2022/05/25 08:13:02;;;;;;;4.60;1.60;;;;;;;42.51;2.81;99186.53;4990624;28;20050;-73
2022/05/25 08:15:31;;;;;;;3.72;1.65;;;;;;;42.53;2.56;99189.75;4991254;28;20141;-73
2022/05/25 08:17:57;;;;;;;3.38;1.58;;;;;;;42.81;2.55;99190.13;5007857;28;20050;-73
2022/05/25 08:20:23;;;;;;;5.82;1.80;;;;;;;43.37;2.20;99187.94;5008300;28;20428;-74
2022/05/25 08:22:50;;;;;;;5.07;1.75;;;;;;;44.13;1.85;99189.78;4975019;28;20039;-75
2022/05/25 08:25:18;;;;;;;6.35;1.83;;;;;;;44.66;1.72;99171.25;5017299;28;20038;-73
2022/05/25 08:27:44;;;;;;;3.85;1.60;;;;;;;45.10;1.58;99175.78;5010829;28;20515;-74
2022/05/25 08:30:20;;;;;;;11.35;2.10;;;;;;;45.80;1.11;99173.84;5011020;28;20517;-73
2022/05/25 08:32:48;;;;;;;5.07;1.52;;;;;;;45.71;1.23;99136.13;5009369;28;20053;-76
2022/05/25 08:35:14;;;;;;;14.27;2.40;;;;;;;43.09;2.20;99173.66;4994342;28;20049;-74
2022/05/25 08:37:41;;;;;;;4.68;1.52;;;;;;;40.41;3.33;99169.72;5027883;28;20092;-74
2022/05/25 08:40:09;;;;;;;5.07;2.17;;;;;;;38.14;3.95;99171.63;5003606;28;20065;-72
2022/05/25 08:42:44;;;;;;;8.23;2.15;;;;;;;35.92;5.05;99159.38;5010492;28;20165;-72
2022/05/25 08:45:10;;;;;;;6.88;2.35;;;;;;;34.71;5.96;99176.66;5011007;28;20053;-75
2022/05/25 08:47:43;;;;;;;6.38;2.00;;;;;;;36.44;5.15;99155.06;4994634;28;20100;-73
2022/05/25 08:50:09;;;;;;;6.03;2.80;;;;;;;38.93;3.80;99168.00;4991738;28;20129;-75
2022/05/25 08:52:36;;;;;;;2.78;1.90;;;;;;;40.74;3.25;99167.22;4990662;28;20103;-74
2022/05/25 08:55:04;;;;;;;4.85;2.10;;;;;;;42.31;2.80;99177.53;5007894;28;20626;-74
2022/05/25 08:57:33;;;;;;;6.38;1.90;;;;;;;43.33;2.36;99172.31;5024010;28;20069;-74
2022/05/25 09:00:01;;;;;;;;;;;;;;;44.17;1.74;99168.19;4990483;28;20050;-77
2022/05/25 09:02:42;;;;;;;2.95;1.80;;;;;;;45.28;1.25;99165.38;4990623;28;19918;-75
2022/05/25 09:05:22;;;;;;;4.65;1.70;;;;;;;45.77;1.25;99166.22;4957995;28;20456;-74
2022/05/25 09:08:26;;;;;;;5.65;1.80;;;;;;;42.98;2.05;99161.59;4996809;28;20055;-75
2022/05/25 09:10:56;;;;;;;5.72;2.00;;;;;;;39.19;3.45;99148.88;5003349;28;20487;-75
2022/05/25 09:13:31;;;;;;;5.35;1.80;;;;;;;38.40;3.67;99153.41;4989204;28;20085;-73
2022/05/25 09:16:20;;;;;;;3.80;2.10;;;;;;;38.83;3.40;99099.09;5019618;28;20079;-72
2022/05/25 09:19:00;;;;;;;9.20;1.90;;;;;;;38.74;3.79;99147.28;4998299;28;20038;-74
2022/05/25 09:21:31;;;;;;;2.72;2.00;;;;;;;38.98;3.44;99145.53;5005480;28;20050;-74
2022/05/25 09:23:58;;;;;;;4.65;2.22;;;;;;;38.65;3.98;99124.44;4990836;28;20046;-75
2022/05/25 09:26:25;;;;;;;6.57;2.15;;;;;;;38.50;3.80;99150.13;4973697;28;20627;-75
2022/05/25 09:28:55;;;;;;;7.28;1.83;;;;;;;39.67;3.33;99154.88;4973527;28;20050;-74
2022/05/25 09:31:22;;;;;;;;;;;;;;;38.16;3.90;99150.72;4991177;28;20050;-75
2022/05/25 09:33:52;;;;;;;5.10;1.90;;;;;;;36.29;4.44;99141.84;5000298;28;19917;-75
2022/05/25 09:36:21;;;;;;;4.90;2.05;;;;;;;34.37;5.71;99152.66;5026077;28;20073;-73
2022/05/25 09:39:20;;;;;;;5.63;1.60;;;;;;;32.79;6.64;99124.75;5009106;28;20525;-74
2022/05/25 09:41:51;;;;;;;4.47;2.20;;;;;;;32.08;7.05;99144.91;5026804;28;20454;-73
2022/05/25 09:44:19;;;;;;;4.47;2.03;;;;;;;31.85;7.39;99137.75;4988451;28;20050;-73
2022/05/25 09:46:50;;;;;;;6.32;2.17;;;;;;;34.04;6.52;99124.75;4971693;28;20098;-74
2022/05/25 09:49:40;;;;;;;8.00;2.35;;;;;;;37.27;5.16;99159.28;4972771;28;20058;-73
2022/05/25 09:52:13;;;;;;;15.48;2.70;;;;;;;38.93;3.90;99132.72;4939240;28;20047;-72
2022/05/25 09:54:46;;;;;;;5.85;2.10;;;;;;;39.95;3.69;99154.78;4989629;28;20078;-73
2022/05/25 09:57:28;;;;;;;6.00;1.90;;;;;;;38.92;3.95;99138.63;4973255;28;20062;-73
2022/05/25 10:00:06;;;;;;;10.75;2.40;;;;;;;37.85;4.48;99135.84;4988614;28;20526;-73
2022/05/25 10:02:41;;;;;;;4.95;2.15;;;;;;;36.51;4.76;99147.03;4989248;28;20046;-72
2022/05/25 10:05:13;;;;;;;6.05;2.22;;;;;;;34.75;5.96;99087.38;4989985;28;20467;-71
2022/05/25 10:07:49;;;;;;;4.95;2.28;;;;;;;34.77;5.68;99134.78;4989371;28;20054;-72
2022/05/25 10:10:33;;;;;;;2.90;2.20;;;;;;;33.78;6.61;99128.59;4990611;28;20054;-73
2022/05/25 10:13:15;;;;;;;7.15;2.45;;;;;;;35.35;5.44;99134.16;4973003;28;20053;-75
2022/05/25 10:15:51;;;;;;;6.18;2.20;;;;;;;35.70;5.03;99119.78;4958215;28;20048;-74
2022/05/25 10:18:35;;;;;;;12.30;2.45;;;;;;;37.93;4.50;99124.63;4972391;28;20050;-73
2022/05/25 10:21:02;;;;;;;11.02;2.45;;;;;;;37.68;4.73;99142.47;4989150;28;20084;-74
2022/05/25 10:23:28;;;;;;;6.05;2.55;;;;;;;37.79;4.07;99137.25;4972917;28;20046;-72
2022/05/25 10:25:56;;;;;;;7.75;2.40;;;;;;;39.02;3.61;99127.81;4957115;28;20053;-73
2022/05/25 10:28:27;;;;;;;4.93;2.28;;;;;;;40.13;3.21;99130.94;4956745;28;20157;-72
2022/05/25 10:36:58;;;;;;;6.05;1.83;;;;;;;41.21;2.66;99120.38;4989259;28;20058;-74
2022/05/25 10:39:32;;;;;;;4.53;1.85;;;;;;;38.02;3.93;99116.16;4955519;28;20104;-72
2022/05/25 10:42:04;;;;;;;5.05;2.40;;;;;;;35.96;5.07;99107.78;4973218;28;20134;-72
2022/05/25 10:44:58;;;;;;;6.78;2.08;;;;;;;35.95;5.27;99104.22;4972356;28;20138;-75
2022/05/25 10:47:30;;;;;;;4.75;2.08;;;;;;;36.19;5.34;99096.03;4977712;28;20058;-73
2022/05/25 10:49:56;;;;;;;5.38;2.22;;;;;;;35.97;5.11;99101.91;4972527;28;20046;-75
2022/05/25 10:52:27;;;;;;;6.40;1.90;;;;;;;35.38;5.58;99092.84;4956406;28;20130;-74
2022/05/25 10:54:55;;;;;;;3.67;2.13;;;;;;;33.92;6.26;99097.03;4956526;28;20058;-75
2022/05/25 10:57:24;;;;;;;6.78;1.75;;;;;;;33.09;6.97;99079.94;4988528;28;20060;-75
2022/05/25 11:00:05;;;;;;;8.40;2.25;;;;;;;32.32;7.45;99091.28;4988570;28;20042;-74
2022/05/25 11:02:52;;;;;;;3.92;2.30;;;;;;;32.27;7.45;99096.09;4972780;28;20500;-74
2022/05/25 11:05:40;;;;;;;8.50;2.33;;;;;;;32.33;7.30;99092.91;4988936;28;20050;-74
2022/05/25 11:08:18;;;;;;;5.90;2.20;;;;;;;31.41;7.71;99058.78;4990088;28;20057;-73
2022/05/25 11:10:47;;;;;;;3.97;1.88;;;;;;;30.61;8.24;99082.28;4991279;28;20053;-73
2022/05/25 11:13:19;;;;;;;6.43;2.10;;;;;;;30.21;8.57;99080.22;4992616;28;20136;-73
2022/05/25 11:15:58;;;;;;;6.22;1.85;;;;;;;29.48;9.21;99075.22;4993520;28;20050;-74
2022/05/25 11:18:51;;;;;;;3.97;2.35;;;;;;;29.11;9.35;99061.50;4989313;28;20097;-74
2022/05/25 11:21:48;;;;;;;4.03;2.10;;;;;;;28.98;9.56;99066.81;4990281;28;20046;-74
2022/05/25 11:24:38;;;;;;;7.07;2.00;;;;;;;29.06;9.87;99061.53;4997392;28;20073;-74
2022/05/25 11:27:17;;;;;;;3.15;1.88;;;;;;;28.77;9.81;99068.16;4993798;28;20511;-74
2022/05/25 11:29:43;;;;;;;4.80;1.88;;;;;;;28.43;9.91;99067.38;4992167;28;20054;-74
2022/05/25 11:32:48;;;;;;;6.40;2.10;;;;;;;28.34;10.14;99069.09;4991941;28;20052;-72
2022/05/25 11:35:44;;;;;;;5.07;1.83;;;;;;;27.66;10.62;99063.53;4990367;28;20140;-73
2022/05/25 11:38:28;;;;;;;6.53;1.63;;;;;;;26.57;11.65;99065.56;4989338;28;20054;-73
2022/05/25 11:41:16;;;;;;;6.72;2.15;;;;;;;26.34;11.42;99045.16;4988382;28;20046;-74
2022/05/25 11:44:01;;;;;;;3.53;1.67;;;;;;;26.68;11.24;99069.13;4988543;28;20061;-73
2022/05/25 11:46:38;;;;;;;5.13;1.80;;;;;;;26.57;11.72;99053.88;4988758;28;20050;-73
2022/05/25 11:49:37;;;;;;;5.53;2.00;;;;;;;26.31;11.61;99063.94;4988935;28;20133;-74
2022/05/25 11:52:29;;;;;;;4.07;1.85;;;;;;;25.21;12.65;99055.56;4945834;28;20174;-74
2022/05/25 11:55:02;;;;;;;6.40;1.77;;;;;;;24.95;12.68;99061.97;5005002;28;20623;-74
2022/05/25 11:57:39;;;;;;;2.47;2.15;;;;;;;24.36;13.41;99074.88;4982140;28;20068;-72
2022/05/25 12:00:33;;;;;;;4.80;1.67;;;;;;;24.25;13.81;99074.00;4999520;28;20113;-71
2022/05/25 12:03:23;;;;;;;2.47;1.70;;;;;;;24.43;13.68;99072.78;5013626;28;20042;-71
2022/05/25 12:06:14;;;;;;;4.20;2.05;;;;;;;24.44;13.81;99077.94;5000297;28;20038;-73
2022/05/25 12:09:11;;;;;;;5.45;1.73;;;;;;;24.21;14.11;99072.91;4988864;28;20089;-72
2022/05/25 12:11:40;;;;;;;5.18;1.90;;;;;;;24.29;13.74;99058.84;4989461;28;20068;-72
2022/05/25 12:14:27;;;;;;;3.47;1.80;;;;;;;24.27;14.46;99062.88;5007148;28;20050;-70
2022/05/25 12:16:58;;;;;;;3.55;1.73;;;;;;;24.15;14.17;99068.50;4990464;28;20095;-73
2022/05/25 12:19:26;;;;;;;2.88;1.85;;;;;;;24.24;13.89;99066.13;4990124;28;20060;-73
2022/05/25 12:22:00;;;;;;;9.90;2.00;;;;;;;24.27;13.58;99044.72;4976474;28;20057;-72
2022/05/25 12:24:38;;;;;;;6.60;2.20;;;;;;;24.70;13.57;99054.50;5029690;28;20042;-70